createdAt,value
2023-07-11T00:00:53.313Z,18.90
2023-07-11T00:03:20.144Z,18.80
2023-07-11T00:05:59.105Z,18.90
2023-07-11T00:08:25.816Z,18.90
2023-07-11T00:10:52.559Z,18.70
2023-07-11T00:13:19.234Z,18.50
2023-07-11T00:15:56.160Z,18.50
2023-07-11T00:18:23.155Z,18.60
2023-07-11T00:20:49.878Z,18.60
2023-07-11T00:23:16.604Z,18.50
2023-07-11T00:25:43.348Z,18.60
2023-07-11T00:28:10.053Z,18.60
2023-07-11T00:30:36.986Z,18.60
2023-07-11T00:33:03.901Z,18.60
2023-07-11T00:35:30.642Z,18.60
2023-07-11T00:37:57.339Z,18.60
2023-07-11T00:40:24.087Z,18.60
2023-07-11T00:42:54.825Z,18.60
2023-07-11T00:45:59.314Z,18.60
2023-07-11T00:48:26.105Z,18.60
2023-07-11T00:50:55.717Z,18.50
2023-07-11T00:53:23.270Z,18.50
2023-07-11T00:55:50.082Z,18.50
2023-07-11T00:58:19.404Z,18.40
2023-07-11T01:00:46.337Z,18.50
2023-07-11T01:03:13.707Z,18.40
2023-07-11T01:05:41.366Z,18.20
2023-07-11T01:08:10.090Z,18.20
2023-07-11T01:10:36.932Z,18.20
2023-07-11T01:13:05.314Z,18.10
2023-07-11T01:15:32.496Z,18.20
2023-07-11T01:17:59.293Z,18.20
2023-07-11T01:20:26.046Z,18.20
2023-07-11T01:22:53.371Z,18.10
2023-07-11T01:25:20.708Z,17.90
2023-07-11T01:27:48.804Z,17.70
2023-07-11T01:30:20.325Z,17.60
2023-07-11T01:32:48.920Z,17.70
2023-07-11T01:35:17.901Z,17.70
2023-07-11T01:37:44.830Z,17.80
2023-07-11T01:40:11.633Z,17.80
2023-07-11T01:42:39.863Z,17.80
2023-07-11T01:45:07.780Z,17.80
2023-07-11T01:47:34.554Z,17.70
2023-07-11T01:50:01.397Z,17.70
2023-07-11T01:52:28.197Z,17.60
2023-07-11T01:54:54.913Z,17.50
2023-07-11T01:57:21.630Z,17.50
2023-07-11T01:59:48.501Z,17.60
2023-07-11T02:02:15.251Z,17.60
2023-07-11T02:04:42.094Z,17.60
2023-07-11T02:07:09.029Z,17.70
2023-07-11T02:09:36.367Z,17.70
2023-07-11T02:12:03.882Z,17.50
2023-07-11T02:14:30.838Z,17.40
2023-07-11T02:16:57.703Z,17.30
2023-07-11T02:19:25.497Z,17.20
2023-07-11T02:21:53.565Z,17.10
2023-07-11T02:24:20.577Z,17.00
2023-07-11T02:26:48.542Z,17.00
2023-07-11T02:29:15.725Z,17.10
2023-07-11T02:31:43.389Z,17.10
2023-07-11T02:34:10.495Z,17.20
2023-07-11T02:39:04.465Z,17.40
2023-07-11T02:41:31.298Z,17.00
2023-07-11T02:43:58.600Z,17.00
2023-07-11T02:46:26.067Z,17.00
2023-07-11T02:48:52.882Z,17.00
2023-07-11T02:51:19.605Z,17.10
2023-07-11T02:53:46.312Z,17.10
2023-07-11T02:56:13.338Z,17.10
2023-07-11T02:58:40.469Z,17.00
2023-07-11T03:01:07.401Z,16.90
2023-07-11T03:03:34.203Z,16.90
2023-07-11T03:06:01.085Z,16.80
2023-07-11T03:08:27.957Z,16.80
2023-07-11T03:10:58.949Z,16.80
2023-07-11T03:13:25.833Z,16.70
2023-07-11T03:15:52.848Z,16.70
2023-07-11T03:18:19.898Z,16.70
2023-07-11T03:20:46.737Z,16.70
2023-07-11T03:23:15.700Z,16.80
2023-07-11T03:25:42.908Z,16.80
2023-07-11T03:28:09.794Z,16.90
2023-07-11T03:30:37.372Z,16.90
2023-07-11T03:33:04.831Z,16.80
2023-07-11T03:35:32.477Z,16.70
2023-07-11T03:37:59.374Z,16.60
2023-07-11T03:40:26.388Z,16.60
2023-07-11T03:42:53.683Z,16.60
2023-07-11T03:45:20.497Z,16.60
2023-07-11T03:47:47.217Z,16.70
2023-07-11T03:50:13.973Z,16.70
2023-07-11T03:52:41.008Z,16.80
2023-07-11T03:55:08.812Z,16.80
2023-07-11T03:57:35.731Z,16.80
2023-07-11T04:00:02.538Z,16.90
2023-07-11T04:02:39.933Z,16.90
2023-07-11T04:05:06.963Z,16.90
2023-07-11T04:07:33.709Z,16.90
2023-07-11T04:10:00.447Z,17.00
2023-07-11T04:12:27.221Z,17.00
2023-07-11T04:14:54.087Z,17.00
2023-07-11T04:17:20.913Z,17.00
2023-07-11T04:19:47.678Z,17.00
2023-07-11T04:22:14.384Z,16.70
2023-07-11T04:24:41.148Z,16.50
2023-07-11T04:27:07.914Z,16.40
2023-07-11T04:29:34.659Z,16.30
2023-07-11T04:32:01.383Z,16.40
2023-07-11T04:34:28.104Z,16.70
2023-07-11T04:36:54.853Z,16.90
2023-07-11T04:39:21.546Z,16.70
2023-07-11T04:41:48.379Z,16.50
2023-07-11T04:44:15.655Z,16.60
2023-07-11T04:46:42.829Z,16.80
2023-07-11T04:49:09.626Z,17.00
2023-07-11T04:51:36.384Z,17.20
2023-07-11T04:54:03.114Z,17.20
2023-07-11T04:56:29.930Z,17.40
2023-07-11T04:58:56.666Z,17.60
2023-07-11T05:01:23.639Z,17.80
2023-07-11T05:03:50.741Z,18.00
2023-07-11T05:06:17.879Z,18.20
2023-07-11T05:08:44.744Z,18.30
2023-07-11T05:11:17.926Z,18.40
2023-07-11T05:13:48.548Z,18.60
2023-07-11T05:16:18.758Z,18.70
2023-07-11T05:18:47.231Z,18.90
2023-07-11T05:21:16.331Z,19.00
2023-07-11T05:23:43.519Z,18.90
2023-07-11T05:26:10.398Z,18.80
2023-07-11T05:28:37.515Z,18.90
2023-07-11T05:31:06.218Z,18.80
2023-07-11T05:33:33.942Z,18.80
2023-07-11T05:36:10.559Z,18.90
2023-07-11T05:38:37.283Z,19.10
2023-07-11T05:41:04.017Z,19.30
2023-07-11T05:43:30.782Z,19.40
2023-07-11T05:45:57.717Z,19.60
2023-07-11T05:48:27.483Z,19.80
2023-07-11T05:51:03.255Z,19.80
2023-07-11T05:53:32.767Z,19.90
2023-07-11T05:55:59.969Z,20.10
2023-07-11T05:58:28.761Z,20.20
2023-07-11T06:00:57.120Z,20.30
2023-07-11T06:03:26.246Z,20.30
2023-07-11T06:05:54.376Z,20.30
2023-07-11T06:08:21.578Z,20.40
2023-07-11T06:10:48.324Z,20.60
2023-07-11T06:13:15.980Z,20.80
2023-07-11T06:15:42.722Z,20.90
2023-07-11T06:18:09.513Z,21.00
2023-07-11T06:20:36.301Z,21.00
2023-07-11T06:23:03.259Z,21.00
2023-07-11T06:25:29.962Z,21.00
2023-07-11T06:27:56.713Z,21.20
2023-07-11T06:30:23.423Z,21.30
2023-07-11T06:32:50.237Z,21.40
2023-07-11T06:35:17.117Z,21.70
2023-07-11T06:37:44.119Z,21.80
2023-07-11T06:40:11.999Z,22.00
2023-07-11T06:42:38.762Z,22.10
2023-07-11T06:45:06.263Z,22.30
2023-07-11T06:47:34.470Z,22.40
2023-07-11T06:50:01.313Z,22.60
2023-07-11T06:52:28.059Z,22.70
2023-07-11T06:54:56.473Z,22.80
2023-07-11T06:57:23.348Z,22.90
2023-07-11T06:59:50.071Z,23.10
2023-07-11T07:02:16.890Z,23.30
2023-07-11T07:04:43.709Z,23.40
2023-07-11T07:07:10.444Z,23.60
2023-07-11T07:09:37.168Z,23.70
2023-07-11T07:12:04.491Z,23.80
2023-07-11T07:14:31.498Z,23.90
2023-07-11T07:16:58.640Z,23.90
2023-07-11T07:19:25.611Z,24.10
2023-07-11T07:21:52.372Z,24.20
2023-07-11T07:24:19.202Z,24.40
2023-07-11T07:26:45.938Z,24.50
2023-07-11T07:29:12.654Z,24.60
2023-07-11T07:31:39.572Z,24.80
2023-07-11T07:34:08.122Z,24.80
2023-07-11T07:36:35.188Z,24.80
2023-07-11T07:39:02.028Z,24.90
2023-07-11T07:41:29.140Z,25.00
2023-07-11T07:43:56.062Z,25.10
2023-07-11T07:46:22.891Z,25.30
2023-07-11T07:48:50.384Z,25.40
2023-07-11T07:51:19.433Z,25.50
2023-07-11T07:53:46.953Z,25.70
2023-07-11T07:56:17.156Z,25.80
2023-07-11T07:58:45.212Z,25.90
2023-07-11T08:01:14.271Z,26.00
2023-07-11T08:03:41.248Z,26.00
2023-07-11T08:06:16.082Z,26.20
2023-07-11T08:08:44.568Z,26.30
2023-07-11T08:11:11.492Z,26.60
2023-07-11T08:13:53.657Z,26.70
2023-07-11T08:18:55.208Z,26.90
2023-07-11T08:21:22.281Z,27.00
2023-07-11T08:23:49.056Z,27.10
2023-07-11T08:26:15.895Z,27.20
2023-07-11T08:28:42.994Z,27.10
2023-07-11T08:31:10.462Z,27.20
2023-07-11T08:33:37.683Z,27.30
2023-07-11T08:36:04.547Z,27.30
2023-07-11T08:38:31.251Z,27.40
2023-07-11T08:40:58.048Z,27.40
2023-07-11T08:43:30.827Z,27.50
2023-07-11T08:46:13.150Z,27.50
2023-07-11T08:48:45.264Z,27.60
2023-07-11T08:51:32.629Z,27.70
2023-07-11T08:54:11.812Z,27.70
2023-07-11T08:56:49.351Z,27.70
2023-07-11T08:59:22.779Z,27.80
2023-07-11T09:02:16.381Z,27.90
2023-07-11T09:04:50.902Z,28.00
2023-07-11T09:07:41.360Z,28.10
2023-07-11T09:10:49.404Z,28.20
2023-07-11T09:13:47.743Z,28.20
2023-07-11T09:16:33.279Z,28.30
2023-07-11T09:19:36.987Z,28.40
2023-07-11T09:22:46.287Z,28.50
2023-07-11T09:25:39.094Z,28.50
2023-07-11T09:28:25.914Z,28.50
2023-07-11T09:31:01.115Z,28.60
2023-07-11T09:33:34.667Z,28.70
2023-07-11T09:36:03.244Z,28.70
2023-07-11T09:38:48.904Z,28.70
2023-07-11T09:41:49.264Z,28.60
2023-07-11T09:44:17.326Z,28.70
2023-07-11T09:46:44.179Z,28.80
2023-07-11T09:49:19.482Z,28.80
2023-07-11T09:51:51.442Z,28.90
2023-07-11T09:54:28.075Z,28.90
2023-07-11T09:56:58.221Z,29.10
2023-07-11T09:59:27.052Z,29.10
2023-07-11T10:01:58.032Z,29.10
2023-07-11T10:04:27.026Z,29.10
2023-07-11T10:07:00.054Z,29.20
2023-07-11T10:09:38.326Z,29.20
2023-07-11T10:12:15.613Z,29.20
2023-07-11T10:14:48.105Z,29.30
2023-07-11T10:17:26.648Z,29.30
2023-07-11T10:20:11.882Z,29.30
2023-07-11T10:22:45.658Z,29.30
2023-07-11T10:25:12.341Z,29.40
2023-07-11T10:27:39.845Z,29.40
2023-07-11T10:30:10.114Z,29.50
2023-07-11T10:32:45.268Z,29.50
2023-07-11T10:35:17.969Z,29.70
2023-07-11T10:38:05.476Z,29.70
2023-07-11T10:40:37.829Z,29.80
2023-07-11T10:43:26.654Z,29.70
2023-07-11T10:46:02.896Z,30.00
2023-07-11T10:48:33.378Z,30.00
2023-07-11T10:51:05.226Z,30.00
2023-07-11T10:53:47.599Z,29.90
2023-07-11T10:56:23.513Z,29.80
2023-07-11T10:58:50.650Z,29.80
2023-07-11T11:01:55.066Z,29.60
2023-07-11T11:04:43.749Z,29.50
2023-07-11T11:07:40.877Z,29.70
2023-07-11T11:10:34.982Z,29.90
2023-07-11T11:13:38.117Z,30.00
2023-07-11T11:16:14.305Z,29.90
2023-07-11T11:19:00.370Z,29.80
2023-07-11T11:24:37.705Z,30.00
2023-07-11T11:27:41.993Z,30.20
2023-07-11T11:30:15.647Z,30.40
2023-07-11T11:32:56.233Z,30.60
2023-07-11T11:35:32.234Z,30.50
2023-07-11T11:38:26.084Z,30.60
2023-07-11T11:40:59.873Z,30.70
2023-07-11T11:43:34.048Z,30.60
2023-07-11T11:51:13.414Z,30.90
2023-07-11T11:53:47.351Z,30.90
2023-07-11T11:56:23.883Z,30.90
2023-07-11T11:58:57.885Z,30.80
2023-07-11T12:01:59.612Z,30.90
2023-07-11T12:04:33.466Z,31.00
2023-07-11T12:07:03.294Z,31.10
2023-07-11T12:10:02.931Z,31.20
2023-07-11T12:15:24.177Z,31.20
2023-07-11T12:17:51.519Z,31.20
2023-07-11T12:20:26.631Z,31.10
2023-07-11T12:22:53.354Z,31.30
2023-07-11T12:25:29.308Z,31.40
2023-07-11T12:27:57.725Z,31.40
2023-07-11T12:30:27.563Z,31.50
2023-07-11T12:32:56.328Z,31.70
2023-07-11T12:35:25.881Z,31.70
2023-07-11T12:38:00.321Z,31.50
2023-07-11T12:40:46.154Z,31.70
2023-07-11T12:43:18.841Z,31.60
2023-07-11T12:45:51.365Z,31.70
2023-07-11T12:48:24.171Z,31.70
2023-07-11T12:50:56.494Z,31.60
2023-07-11T12:53:24.631Z,31.50
2023-07-11T12:55:54.507Z,31.60
2023-07-11T12:58:29.642Z,31.60
2023-07-11T13:00:58.563Z,31.70
2023-07-11T13:03:37.489Z,31.80
2023-07-11T13:06:23.029Z,31.80
2023-07-11T13:08:50.696Z,31.90
2023-07-11T13:11:22.291Z,31.90
2023-07-11T13:13:49.942Z,31.90
2023-07-11T13:16:19.218Z,32.10
2023-07-11T13:18:49.186Z,32.00
2023-07-11T13:21:19.282Z,32.00
2023-07-11T13:23:52.831Z,32.10
2023-07-11T13:26:30.482Z,32.10
2023-07-11T13:29:20.191Z,32.20
2023-07-11T13:31:49.237Z,32.30
2023-07-11T13:34:21.420Z,32.20
2023-07-11T13:36:50.438Z,32.40
2023-07-11T13:39:28.981Z,32.60
2023-07-11T13:41:58.023Z,32.80
2023-07-11T13:44:36.368Z,32.60
2023-07-11T13:47:12.543Z,32.60
2023-07-11T13:49:45.308Z,32.70
2023-07-11T13:52:44.360Z,32.60
2023-07-11T13:55:22.128Z,32.80
2023-07-11T13:58:00.109Z,32.90
2023-07-11T14:00:27.999Z,32.60
2023-07-11T14:02:55.173Z,32.80
2023-07-11T14:05:28.847Z,33.10
2023-07-11T14:07:58.640Z,33.30
2023-07-11T14:10:30.218Z,33.50
2023-07-11T14:13:00.596Z,33.50
2023-07-11T14:15:29.508Z,33.50
2023-07-11T14:17:59.570Z,33.50
2023-07-11T14:21:02.726Z,33.50
2023-07-11T14:31:57.088Z,33.70
2023-07-11T14:34:27.555Z,33.50
2023-07-11T14:36:55.539Z,33.20
2023-07-11T14:39:22.639Z,33.00
2023-07-11T14:41:51.020Z,33.20
2023-07-11T14:44:30.099Z,33.30
2023-07-11T14:46:57.648Z,33.50
2023-07-11T14:49:26.273Z,33.40
2023-07-11T14:51:53.356Z,33.50
2023-07-11T14:54:30.641Z,33.50
2023-07-11T14:57:14.934Z,33.60
2023-07-11T14:59:42.308Z,33.40
2023-07-11T15:02:34.481Z,33.70
2023-07-11T15:10:17.117Z,34.00
2023-07-11T15:17:47.901Z,34.20
2023-07-11T15:20:18.077Z,34.40
2023-07-11T15:22:48.201Z,34.30
2023-07-11T15:25:18.817Z,34.00
2023-07-11T15:27:45.706Z,33.90
2023-07-11T15:30:17.162Z,33.60
2023-07-11T15:32:45.292Z,33.60
2023-07-11T15:35:20.785Z,33.90
2023-07-11T15:37:48.376Z,34.10
2023-07-11T15:40:24.432Z,33.80
2023-07-11T15:42:52.898Z,33.60
2023-07-11T15:45:28.021Z,33.50
2023-07-11T15:47:56.005Z,33.50
2023-07-11T15:50:27.781Z,33.60
2023-07-11T15:52:54.908Z,33.50
2023-07-11T15:55:24.837Z,33.30
2023-07-11T15:57:53.387Z,33.50
2023-07-11T16:00:29.414Z,33.50
2023-07-11T16:02:57.057Z,33.70
2023-07-11T16:05:33.971Z,33.60
2023-07-11T16:08:00.833Z,33.50
2023-07-11T16:10:37.404Z,33.50
2023-07-11T16:13:15.244Z,33.60
2023-07-11T16:15:42.135Z,33.90
2023-07-11T16:18:15.971Z,34.00
2023-07-11T16:20:43.403Z,34.30
2023-07-11T16:23:22.709Z,34.50
2023-07-11T16:25:50.416Z,34.80
2023-07-11T16:28:23.578Z,34.90
2023-07-11T16:30:51.374Z,35.30
2023-07-11T16:33:25.353Z,35.60
2023-07-11T16:35:54.347Z,36.20
2023-07-11T16:38:23.845Z,36.40
2023-07-11T16:40:52.229Z,36.40
2023-07-11T16:43:22.548Z,35.70
2023-07-11T16:45:49.437Z,35.70
2023-07-11T16:48:20.859Z,36.20
2023-07-11T16:50:47.570Z,36.60
2023-07-11T16:53:23.750Z,37.40
2023-07-11T16:55:53.767Z,37.70
2023-07-11T16:58:26.346Z,37.40
2023-07-11T17:00:55.196Z,36.70
2023-07-11T17:03:23.063Z,36.20
2023-07-11T17:05:50.974Z,36.10
2023-07-11T17:08:20.172Z,36.40
2023-07-11T17:10:50.570Z,36.80
2023-07-11T17:13:24.767Z,36.30
2023-07-11T17:15:52.069Z,36.70
2023-07-11T17:18:19.844Z,37.20
2023-07-11T17:20:47.746Z,36.90
2023-07-11T17:23:18.213Z,36.50
2023-07-11T17:25:48.810Z,36.20
2023-07-11T17:28:29.651Z,35.00
2023-07-11T17:30:57.656Z,34.00
2023-07-11T17:33:27.662Z,33.60
2023-07-11T17:35:56.000Z,33.50
2023-07-11T17:38:27.747Z,33.80
2023-07-11T17:40:54.858Z,34.60
2023-07-11T17:43:25.124Z,35.50
2023-07-11T17:48:27.840Z,36.90
2023-07-11T17:50:59.094Z,37.80
2023-07-11T17:53:26.410Z,39.30
2023-07-11T17:55:53.294Z,40.70
2023-07-11T17:58:20.537Z,41.60
2023-07-11T18:00:47.276Z,42.40
2023-07-11T18:03:14.038Z,42.70
2023-07-11T18:05:41.888Z,43.20
2023-07-11T18:08:12.854Z,42.90
2023-07-11T18:10:39.519Z,42.90
2023-07-11T18:13:10.731Z,42.90
2023-07-11T18:15:38.829Z,42.40
2023-07-11T18:18:14.577Z,42.40
2023-07-11T18:20:41.422Z,42.30
2023-07-11T18:23:08.502Z,42.20
2023-07-11T18:25:35.307Z,41.80
2023-07-11T18:28:02.148Z,41.10
2023-07-11T18:30:29.193Z,40.00
2023-07-11T18:32:56.064Z,38.80
2023-07-11T18:35:23.042Z,37.30
2023-07-11T18:37:49.837Z,36.30
2023-07-11T18:40:26.754Z,35.30
2023-07-11T18:42:54.454Z,34.50
2023-07-11T18:45:22.670Z,33.90
2023-07-11T18:47:51.994Z,32.80
2023-07-11T18:50:21.345Z,32.60
2023-07-11T18:52:48.102Z,32.20
2023-07-11T18:55:15.505Z,31.80
2023-07-11T18:57:45.217Z,31.60
2023-07-11T19:00:32.945Z,31.30
2023-07-11T19:03:02.426Z,31.00
2023-07-11T19:05:31.012Z,30.70
2023-07-11T19:07:57.916Z,30.40
2023-07-11T19:10:27.198Z,30.30
2023-07-11T19:12:54.554Z,30.20
2023-07-11T19:15:23.638Z,30.00
2023-07-11T19:17:58.304Z,29.80
2023-07-11T19:20:31.005Z,29.50
2023-07-11T19:22:58.561Z,29.20
2023-07-11T19:25:38.041Z,29.00
2023-07-11T19:28:20.762Z,28.70
2023-07-11T19:30:50.581Z,28.50
2023-07-11T19:33:18.447Z,28.50
2023-07-11T19:35:52.260Z,28.40
2023-07-11T19:38:25.525Z,28.20
2023-07-11T19:40:52.927Z,27.90
2023-07-11T19:43:20.329Z,27.60
2023-07-11T19:45:52.042Z,27.50
2023-07-11T19:48:27.099Z,27.30
2023-07-11T19:51:01.080Z,27.00
2023-07-11T19:53:32.273Z,27.00
2023-07-11T19:56:01.230Z,26.90
2023-07-11T20:02:18.154Z,26.70
2023-07-11T20:04:45.961Z,26.70
2023-07-11T20:07:14.855Z,26.80
2023-07-11T20:09:43.125Z,26.90
2023-07-11T20:12:35.469Z,26.90
2023-07-11T20:15:02.294Z,26.90
2023-07-11T20:17:29.427Z,26.80
2023-07-11T20:19:59.197Z,26.60
2023-07-11T20:22:25.948Z,26.40
2023-07-11T20:24:54.739Z,26.20
2023-07-11T20:27:21.462Z,26.00
2023-07-11T20:29:51.029Z,25.80
2023-07-11T20:32:18.548Z,25.80
2023-07-11T20:34:45.827Z,25.90
2023-07-11T20:37:14.703Z,25.90
2023-07-11T20:39:42.987Z,26.00
2023-07-11T20:42:10.452Z,26.00
2023-07-11T20:44:40.618Z,26.00
2023-07-11T20:47:16.543Z,25.80
2023-07-11T20:54:40.856Z,24.60
2023-07-11T20:57:14.694Z,24.10
2023-07-11T20:59:41.419Z,23.90
2023-07-11T21:02:13.480Z,23.80
2023-07-11T21:05:58.685Z,21.40
2023-07-11T21:08:28.926Z,18.30
2023-07-11T21:10:57.036Z,16.10
2023-07-11T21:13:24.980Z,14.50
2023-07-11T21:15:53.587Z,14.50
2023-07-11T21:18:22.366Z,14.70
2023-07-11T21:20:54.577Z,14.80
2023-07-11T21:23:22.813Z,15.10
2023-07-11T21:25:50.144Z,15.30
2023-07-11T21:28:29.819Z,15.50
2023-07-11T21:31:03.664Z,15.80
2023-07-11T21:33:31.631Z,15.80
2023-07-11T21:36:00.894Z,16.00
2023-07-11T21:38:31.176Z,16.00
2023-07-11T21:40:59.663Z,16.20
2023-07-11T21:43:26.789Z,16.20
2023-07-11T21:45:56.738Z,16.20
2023-07-11T21:48:25.938Z,16.20
2023-07-11T21:50:55.726Z,16.30
2023-07-11T21:53:25.021Z,16.30
2023-07-11T21:55:55.420Z,16.40
2023-07-11T21:58:24.953Z,16.40
2023-07-11T22:00:52.606Z,16.50
2023-07-11T22:03:25.849Z,16.60
2023-07-11T22:05:55.290Z,16.70
2023-07-11T22:08:24.989Z,16.70
2023-07-11T22:10:51.970Z,16.80
2023-07-11T22:13:21.714Z,16.90
2023-07-11T22:15:49.136Z,17.00
2023-07-11T22:18:26.717Z,17.20
2023-07-11T22:20:54.010Z,17.40
2023-07-11T22:23:21.025Z,17.50
2023-07-11T22:25:48.089Z,17.60
2023-07-11T22:28:19.079Z,17.70
2023-07-11T22:30:47.135Z,17.80
2023-07-11T22:33:15.438Z,17.90
2023-07-11T22:35:42.225Z,17.90
2023-07-11T22:38:13.037Z,17.90
2023-07-11T22:40:46.010Z,17.70
2023-07-11T22:43:17.018Z,17.70
2023-07-11T22:45:46.327Z,17.80
2023-07-11T22:48:17.748Z,17.90
2023-07-11T22:50:53.314Z,18.00
2023-07-11T22:53:23.000Z,18.00
2023-07-11T22:56:17.454Z,18.10
2023-07-11T22:58:44.187Z,18.00
2023-07-11T23:01:15.884Z,18.00
2023-07-11T23:03:42.788Z,18.00
2023-07-11T23:06:17.494Z,18.00
2023-07-11T23:08:44.267Z,18.10
2023-07-11T23:11:11.520Z,18.20
2023-07-11T23:13:38.461Z,18.30
2023-07-11T23:16:12.253Z,18.40
2023-07-11T23:18:39.168Z,18.40
2023-07-11T23:21:05.960Z,18.50
2023-07-11T23:23:32.682Z,18.60
2023-07-11T23:26:02.290Z,18.60
2023-07-11T23:28:32.859Z,18.70
2023-07-11T23:31:03.216Z,18.80
2023-07-11T23:33:30.276Z,18.80
2023-07-11T23:36:00.304Z,18.90
2023-07-11T23:38:28.109Z,18.80
2023-07-11T23:40:56.238Z,18.70
2023-07-11T23:43:37.502Z,18.70
2023-07-11T23:46:22.519Z,18.80
2023-07-11T23:48:53.210Z,18.70
2023-07-11T23:51:21.502Z,18.80
2023-07-11T23:53:49.088Z,18.80
2023-07-11T23:56:23.422Z,18.60
2023-07-11T23:58:51.440Z,18.40
